createdAt,value
2023-07-24T00:00:30.239Z,97343.81
2023-07-24T00:02:57.977Z,97351.84
2023-07-24T00:05:24.849Z,97333.34
2023-07-24T00:07:51.493Z,97344.91
2023-07-24T00:10:18.216Z,97335.88
2023-07-24T00:12:45.568Z,97312.53
2023-07-24T00:15:12.314Z,97325.59
2023-07-24T00:17:39.021Z,97335.09
2023-07-24T00:20:06.986Z,97327.81
2023-07-24T00:22:33.714Z,97334.72
2023-07-24T00:25:00.285Z,97328.94
2023-07-24T00:27:27.568Z,97356.88
2023-07-24T00:29:54.194Z,97360.09
2023-07-24T00:32:20.930Z,97364.75
2023-07-24T00:34:47.645Z,97352.06
2023-07-24T00:37:14.338Z,97330.31
2023-07-24T00:39:40.942Z,97331.25
2023-07-24T00:42:08.230Z,97340.28
2023-07-24T00:44:34.844Z,97323.06
2023-07-24T00:47:01.914Z,97338.81
2023-07-24T00:49:28.754Z,97323.50
2023-07-24T00:51:55.448Z,97314.47
2023-07-24T00:54:23.420Z,97319.91
2023-07-24T00:56:50.374Z,97323.13
2023-07-24T00:59:17.499Z,97338.53
2023-07-24T01:01:45.330Z,97326.78
2023-07-24T01:04:12.391Z,97311.47
2023-07-24T01:06:39.073Z,97308.53
2023-07-24T01:09:06.427Z,97321.75
2023-07-24T01:12:12.016Z,97319.34
2023-07-24T01:14:48.121Z,97328.78
2023-07-24T01:17:18.958Z,97320.88
2023-07-24T01:19:52.782Z,97340.28
2023-07-24T01:22:27.090Z,97331.88
2023-07-24T01:25:05.245Z,97333.97
2023-07-24T01:27:31.922Z,97332.66
2023-07-24T01:29:59.182Z,97326.13
2023-07-24T01:32:26.180Z,97337.69
2023-07-24T01:34:54.354Z,97339.00
2023-07-24T01:37:23.438Z,97319.97
2023-07-24T01:39:51.390Z,97314.66
2023-07-24T01:42:18.932Z,97346.97
2023-07-24T01:44:45.541Z,97327.94
2023-07-24T01:47:12.227Z,97314.47
2023-07-24T01:49:39.233Z,97315.56
2023-07-24T01:52:06.677Z,97301.78
2023-07-24T01:54:33.255Z,97334.91
2023-07-24T01:57:00.695Z,97327.47
2023-07-24T01:59:27.288Z,97324.53
2023-07-24T02:01:54.038Z,97348.31
2023-07-24T02:04:23.284Z,97335.72
2023-07-24T02:06:50.992Z,97340.97
2023-07-24T02:09:20.490Z,97351.44
2023-07-24T02:11:47.272Z,97324.66
2023-07-24T02:14:15.142Z,97328.06
2023-07-24T02:16:41.882Z,97320.84
2023-07-24T02:19:09.337Z,97328.06
2023-07-24T02:21:36.004Z,97335.13
2023-07-24T02:24:02.610Z,97303.09
2023-07-24T02:26:30.000Z,97321.44
2023-07-24T02:28:56.814Z,97343.41
2023-07-24T02:31:23.569Z,97338.28
2023-07-24T02:33:50.590Z,97323.88
2023-07-24T02:36:17.298Z,97322.25
2023-07-24T02:38:43.980Z,97336.16
2023-07-24T02:41:11.330Z,97338.66
2023-07-24T02:43:41.894Z,97320.44
2023-07-24T02:46:08.541Z,97341.19
2023-07-24T02:48:36.655Z,97353.28
2023-07-24T02:51:03.503Z,97359.31
2023-07-24T02:53:30.224Z,97333.75
2023-07-24T02:55:57.390Z,97338.59
2023-07-24T02:58:24.616Z,97341.38
2023-07-24T03:00:51.198Z,97346.03
2023-07-24T03:03:18.059Z,97338.25
2023-07-24T03:05:44.748Z,97337.47
2023-07-24T03:08:11.357Z,97352.47
2023-07-24T03:10:42.093Z,97343.69
2023-07-24T03:13:09.468Z,97349.06
2023-07-24T03:15:36.099Z,97358.72
2023-07-24T03:18:03.381Z,97343.09
2023-07-24T03:20:30.586Z,97354.91
2023-07-24T03:22:57.234Z,97339.38
2023-07-24T03:25:24.694Z,97343.63
2023-07-24T03:27:51.868Z,97337.06
2023-07-24T03:30:18.578Z,97322.53
2023-07-24T03:32:45.201Z,97334.34
2023-07-24T03:35:12.050Z,97320.34
2023-07-24T03:37:38.678Z,97319.22
2023-07-24T03:40:06.779Z,97341.31
2023-07-24T03:42:34.082Z,97346.91
2023-07-24T03:45:00.894Z,97345.63
2023-07-24T03:47:28.187Z,97339.47
2023-07-24T03:49:55.024Z,97351.47
2023-07-24T03:52:21.990Z,97350.88
2023-07-24T03:54:49.291Z,97332.50
2023-07-24T03:57:15.983Z,97340.38
2023-07-24T03:59:42.593Z,97337.56
2023-07-24T04:02:10.763Z,97343.00
2023-07-24T04:04:38.630Z,97345.13
2023-07-24T04:07:05.983Z,97325.47
2023-07-24T04:09:33.248Z,97334.44
2023-07-24T04:12:00.034Z,97340.56
2023-07-24T04:14:26.689Z,97342.34
2023-07-24T04:16:54.208Z,97325.84
2023-07-24T04:19:20.941Z,97342.66
2023-07-24T04:21:47.581Z,97324.22
2023-07-24T04:24:14.326Z,97326.00
2023-07-24T04:26:41.809Z,97348.59
2023-07-24T04:29:08.416Z,97336.69
2023-07-24T04:31:35.852Z,97346.25
2023-07-24T04:34:02.631Z,97351.56
2023-07-24T04:36:29.511Z,97328.59
2023-07-24T04:38:56.876Z,97326.38
2023-07-24T04:41:23.667Z,97338.16
2023-07-24T04:43:50.321Z,97334.81
2023-07-24T04:46:16.990Z,97344.25
2023-07-24T04:48:43.607Z,97330.31
2023-07-24T04:51:10.299Z,97341.94
2023-07-24T04:53:40.216Z,97346.97
2023-07-24T04:56:06.876Z,97332.22
2023-07-24T04:58:34.339Z,97344.28
2023-07-24T05:01:05.153Z,97328.38
2023-07-24T05:03:32.858Z,97357.84
2023-07-24T05:05:59.666Z,97347.91
2023-07-24T05:08:27.187Z,97338.97
2023-07-24T05:10:58.143Z,97337.53
2023-07-24T05:13:24.809Z,97343.81
2023-07-24T05:15:51.511Z,97343.50
2023-07-24T05:18:18.255Z,97360.63
2023-07-24T05:20:49.751Z,97351.03
2023-07-24T05:23:16.557Z,97342.38
2023-07-24T05:25:43.308Z,97340.63
2023-07-24T05:28:10.493Z,97343.72
2023-07-24T05:30:37.458Z,97339.25
2023-07-24T05:33:04.338Z,97334.47
2023-07-24T05:35:31.070Z,97345.09
2023-07-24T05:37:57.802Z,97334.34
2023-07-24T05:40:25.492Z,97346.75
2023-07-24T05:42:52.571Z,97328.13
2023-07-24T05:45:19.733Z,97331.31
2023-07-24T05:47:46.793Z,97321.56
2023-07-24T05:50:15.099Z,97320.44
2023-07-24T05:52:42.103Z,97333.94
2023-07-24T05:55:09.674Z,97319.00
2023-07-24T05:57:36.867Z,97323.34
2023-07-24T06:00:06.427Z,97312.38
2023-07-24T06:02:33.338Z,97311.38
2023-07-24T06:05:00.135Z,97325.00
2023-07-24T06:07:27.270Z,97307.75
2023-07-24T06:09:54.685Z,97323.28
2023-07-24T06:12:21.324Z,97311.13
2023-07-24T06:14:48.004Z,97319.06
2023-07-24T06:17:14.750Z,97310.72
2023-07-24T06:19:41.358Z,97300.31
2023-07-24T06:22:08.731Z,97305.03
2023-07-24T06:24:36.456Z,97301.56
2023-07-24T06:27:03.262Z,97307.03
2023-07-24T06:29:29.871Z,97303.09
2023-07-24T06:31:56.732Z,97299.94
2023-07-24T06:34:23.308Z,97314.94
2023-07-24T06:36:50.011Z,97288.84
2023-07-24T06:39:16.930Z,97294.53
2023-07-24T06:41:43.728Z,97296.56
2023-07-24T06:44:10.771Z,97294.44
2023-07-24T06:46:38.153Z,97300.72
2023-07-24T06:49:04.858Z,97280.13
2023-07-24T06:51:31.520Z,97291.50
2023-07-24T06:53:58.315Z,97275.69
2023-07-24T06:56:24.942Z,97289.03
2023-07-24T06:58:52.417Z,97285.22
2023-07-24T07:01:19.836Z,97270.72
2023-07-24T07:03:46.488Z,97256.22
2023-07-24T07:08:43.549Z,97278.56
2023-07-24T07:11:10.406Z,97274.75
2023-07-24T07:13:42.360Z,97274.19
2023-07-24T07:16:09.135Z,97253.91
2023-07-24T07:18:35.723Z,97287.63
2023-07-24T07:21:02.464Z,97265.56
2023-07-24T07:23:29.074Z,97283.47
2023-07-24T07:25:55.925Z,97283.28
2023-07-24T07:28:23.953Z,97281.94
2023-07-24T07:30:51.371Z,97274.63
2023-07-24T07:33:18.081Z,97270.78
2023-07-24T07:35:44.786Z,97267.81
2023-07-24T07:38:12.139Z,97279.16
2023-07-24T07:40:40.350Z,97273.31
2023-07-24T07:43:08.228Z,97262.72
2023-07-24T07:45:35.047Z,97266.44
2023-07-24T07:48:01.827Z,97263.72
2023-07-24T07:50:28.612Z,97253.94
2023-07-24T07:52:55.340Z,97257.59
2023-07-24T07:55:22.094Z,97260.81
2023-07-24T07:57:48.833Z,97242.22
2023-07-24T08:00:16.402Z,97257.34
2023-07-24T08:02:43.243Z,97257.41
2023-07-24T08:05:17.928Z,97259.44
2023-07-24T08:07:46.898Z,97243.56
2023-07-24T08:10:17.254Z,97257.50
2023-07-24T08:12:45.083Z,97257.16
2023-07-24T08:15:12.770Z,97247.59
2023-07-24T08:17:39.836Z,97237.28
2023-07-24T08:20:07.373Z,97241.63
2023-07-24T08:22:34.792Z,97244.81
2023-07-24T08:25:02.584Z,97242.03
2023-07-24T08:27:29.423Z,97236.47
2023-07-24T08:29:56.943Z,97236.47
2023-07-24T08:32:24.404Z,97236.81
2023-07-24T08:34:51.096Z,97218.88
2023-07-24T08:37:18.721Z,97221.25
2023-07-24T08:39:45.490Z,97221.19
2023-07-24T08:42:13.452Z,97229.50
2023-07-24T08:44:41.329Z,97217.09
2023-07-24T08:47:12.273Z,97220.94
2023-07-24T08:49:43.530Z,97220.06
2023-07-24T08:52:19.714Z,97212.84
2023-07-24T08:54:51.277Z,97216.41
2023-07-24T08:57:18.449Z,97227.50
2023-07-24T08:59:45.148Z,97216.72
2023-07-24T09:02:12.231Z,97221.72
2023-07-24T09:04:38.902Z,97219.66
2023-07-24T09:07:06.294Z,97196.47
2023-07-24T09:09:32.911Z,97227.59
2023-07-24T09:12:01.325Z,97195.13
2023-07-24T09:14:32.886Z,97224.41
2023-07-24T09:17:12.152Z,97209.19
2023-07-24T09:19:39.460Z,97210.69
2023-07-24T09:22:19.326Z,97195.03
2023-07-24T09:24:54.089Z,97194.50
2023-07-24T09:27:22.935Z,97202.34
2023-07-24T09:29:49.595Z,97190.41
2023-07-24T09:32:23.938Z,97183.59
2023-07-24T09:34:52.230Z,97187.94
2023-07-24T09:37:29.398Z,97182.09
2023-07-24T09:39:56.263Z,97183.63
2023-07-24T09:42:33.814Z,97163.47
2023-07-24T09:45:01.567Z,97164.94
2023-07-24T09:47:51.352Z,97168.22
2023-07-24T09:50:14.948Z,97147.53
2023-07-24T09:52:43.182Z,97149.50
2023-07-24T09:55:20.000Z,97153.63
2023-07-24T09:57:47.910Z,97135.47
2023-07-24T10:00:15.463Z,97139.25
2023-07-24T10:02:43.422Z,97132.78
2023-07-24T10:05:10.144Z,97125.59
2023-07-24T10:07:37.323Z,97155.72
2023-07-24T10:10:05.404Z,97136.16
2023-07-24T10:12:33.655Z,97131.72
2023-07-24T10:15:01.305Z,97145.47
2023-07-24T10:17:39.380Z,97138.31
2023-07-24T10:20:08.316Z,97148.88
2023-07-24T10:22:35.653Z,97141.22
2023-07-24T10:25:03.398Z,97130.47
2023-07-24T10:27:30.124Z,97122.00
2023-07-24T10:30:15.338Z,97133.56
2023-07-24T10:32:55.285Z,97123.94
2023-07-24T10:35:24.661Z,97140.81
2023-07-24T10:38:01.729Z,97121.94
2023-07-24T10:40:29.469Z,97125.75
2023-07-24T10:43:06.204Z,97120.28
2023-07-24T10:45:54.834Z,97117.44
2023-07-24T10:48:23.347Z,97106.75
2023-07-24T10:50:54.418Z,97097.19
2023-07-24T10:53:23.261Z,97096.25
2023-07-24T10:55:52.128Z,97087.16
2023-07-24T10:58:19.013Z,97093.47
2023-07-24T11:00:47.885Z,97094.16
2023-07-24T11:03:15.580Z,97080.44
2023-07-24T11:05:46.707Z,97082.72
2023-07-24T11:08:21.350Z,97073.94
2023-07-24T11:10:52.339Z,97078.97
2023-07-24T11:13:24.962Z,97074.22
2023-07-24T11:15:53.315Z,97075.97
2023-07-24T11:18:34.299Z,97069.19
2023-07-24T11:21:04.446Z,97063.84
2023-07-24T11:23:31.299Z,97069.28
2023-07-24T11:25:57.957Z,97073.84
2023-07-24T11:28:24.692Z,97058.69
2023-07-24T11:30:53.021Z,97048.88
2023-07-24T11:33:20.475Z,97070.31
2023-07-24T11:35:48.280Z,97062.97
2023-07-24T11:38:15.163Z,97056.41
2023-07-24T11:40:45.670Z,97022.34
2023-07-24T11:43:20.634Z,97059.31
2023-07-24T11:45:49.946Z,97046.63
2023-07-24T11:48:17.020Z,97050.84
2023-07-24T11:50:49.796Z,97033.06
2023-07-24T11:53:30.988Z,97033.13
2023-07-24T11:55:59.827Z,97029.03
2023-07-24T11:58:30.897Z,97031.91
2023-07-24T12:00:57.979Z,97025.31
2023-07-24T12:03:29.855Z,97036.38
2023-07-24T12:05:57.033Z,97036.19
2023-07-24T12:08:35.265Z,97030.16
2023-07-24T12:11:03.057Z,97022.56
2023-07-24T12:13:30.630Z,97013.00
2023-07-24T12:15:57.426Z,97013.63
2023-07-24T12:18:26.796Z,97019.06
2023-07-24T12:20:53.685Z,97006.63
2023-07-24T12:23:20.649Z,97004.88
2023-07-24T12:25:47.436Z,96971.97
2023-07-24T12:28:14.231Z,96994.53
2023-07-24T12:30:42.065Z,96979.28
2023-07-24T12:33:08.708Z,96993.31
2023-07-24T12:35:35.678Z,96995.50
2023-07-24T12:38:03.612Z,96990.97
2023-07-24T12:40:30.372Z,96955.47
2023-07-24T12:42:57.094Z,96976.84
2023-07-24T12:45:23.996Z,96980.84
2023-07-24T12:47:50.712Z,96964.22
2023-07-24T12:50:17.353Z,96964.22
2023-07-24T12:52:44.862Z,96955.56
2023-07-24T12:55:11.903Z,96962.06
2023-07-24T12:57:38.678Z,96966.41
2023-07-24T13:00:06.313Z,96957.31
2023-07-24T13:02:33.617Z,96968.53
2023-07-24T13:05:00.329Z,96961.97
2023-07-24T13:07:28.116Z,96966.41
2023-07-24T13:09:54.693Z,96955.63
2023-07-24T13:12:21.620Z,96955.28
2023-07-24T13:14:48.815Z,96948.81
2023-07-24T13:17:15.484Z,96944.09
2023-07-24T13:19:42.145Z,96944.97
2023-07-24T13:22:09.426Z,96953.09
2023-07-24T13:24:36.046Z,96958.06
2023-07-24T13:27:02.704Z,96954.25
2023-07-24T13:29:32.519Z,96943.72
2023-07-24T13:31:59.126Z,96946.50
2023-07-24T13:34:26.045Z,96944.78
2023-07-24T13:36:52.778Z,96952.28
2023-07-24T13:39:20.360Z,96938.16
2023-07-24T13:41:46.936Z,96943.22
2023-07-24T13:44:13.612Z,96949.56
2023-07-24T13:46:40.813Z,96938.16
2023-07-24T13:49:08.491Z,96938.44
2023-07-24T13:51:35.293Z,96928.06
2023-07-24T13:54:03.384Z,96943.75
2023-07-24T13:56:35.045Z,96929.84
2023-07-24T13:59:02.054Z,96937.25
2023-07-24T14:01:29.134Z,96910.78
2023-07-24T14:03:56.300Z,96909.34
2023-07-24T14:06:23.695Z,96906.25
2023-07-24T14:08:50.458Z,96912.16
2023-07-24T14:11:17.119Z,96903.78
2023-07-24T14:13:46.307Z,96898.91
2023-07-24T14:16:13.074Z,96903.41
2023-07-24T14:18:42.309Z,96910.81
2023-07-24T14:21:09.549Z,96888.97
2023-07-24T14:23:36.177Z,96893.53
2023-07-24T14:26:03.008Z,96883.78
2023-07-24T14:28:30.369Z,96881.19
2023-07-24T14:30:57.074Z,96875.06
2023-07-24T14:33:23.825Z,96855.22
2023-07-24T14:35:51.322Z,96870.84
2023-07-24T14:38:18.075Z,96866.31
2023-07-24T14:40:44.739Z,96847.25
2023-07-24T14:43:11.909Z,96866.53
2023-07-24T14:45:38.715Z,96855.84
2023-07-24T14:48:05.966Z,96856.28
2023-07-24T14:50:33.562Z,96869.31
2023-07-24T14:53:00.268Z,96864.50
2023-07-24T14:55:26.954Z,96856.56
2023-07-24T14:57:53.765Z,96858.81
2023-07-24T15:00:20.532Z,96849.41
2023-07-24T15:02:47.687Z,96860.22
2023-07-24T15:05:14.601Z,96857.84
2023-07-24T15:07:41.319Z,96853.56
2023-07-24T15:10:08.438Z,96851.50
2023-07-24T15:12:35.809Z,96841.16
2023-07-24T15:15:02.477Z,96823.28
2023-07-24T15:17:29.285Z,96833.56
2023-07-24T15:19:56.288Z,96818.97
2023-07-24T15:22:24.227Z,96799.94
2023-07-24T15:24:51.053Z,96817.84
2023-07-24T15:27:17.861Z,96828.16
2023-07-24T15:29:44.525Z,96824.56
2023-07-24T15:32:12.639Z,96813.97
2023-07-24T15:34:40.051Z,96827.75
2023-07-24T15:37:07.130Z,96814.75
2023-07-24T15:39:33.866Z,96829.81
2023-07-24T15:42:01.064Z,96808.09
2023-07-24T15:44:27.827Z,96797.44
2023-07-24T15:46:54.480Z,96817.63
2023-07-24T15:49:21.897Z,96797.00
2023-07-24T15:51:49.547Z,96797.66
2023-07-24T15:54:16.741Z,96801.78
2023-07-24T15:56:44.231Z,96803.31
2023-07-24T15:59:10.978Z,96804.44
2023-07-24T16:01:37.955Z,96812.47
2023-07-24T16:04:04.878Z,96806.75
2023-07-24T16:06:31.700Z,96810.03
2023-07-24T16:08:58.670Z,96796.84
2023-07-24T16:11:25.620Z,96804.94
2023-07-24T16:13:52.211Z,96803.16
2023-07-24T16:16:19.991Z,96798.66
2023-07-24T16:18:46.710Z,96803.25
2023-07-24T16:21:13.417Z,96771.66
2023-07-24T16:23:42.092Z,96785.19
2023-07-24T16:26:08.690Z,96781.81
2023-07-24T16:28:35.395Z,96798.16
2023-07-24T16:31:02.072Z,96783.63
2023-07-24T16:33:31.237Z,96773.78
2023-07-24T16:35:58.145Z,96780.16
2023-07-24T16:38:24.776Z,96759.19
2023-07-24T16:40:52.680Z,96762.00
2023-07-24T16:43:19.396Z,96774.66
2023-07-24T16:46:04.269Z,96758.94
2023-07-24T16:48:33.386Z,96758.19
2023-07-24T16:51:00.208Z,96767.75
2023-07-24T16:53:26.864Z,96761.81
2023-07-24T16:55:54.407Z,96760.66
2023-07-24T16:58:21.576Z,96760.72
2023-07-24T17:00:48.263Z,96759.22
2023-07-24T17:03:15.022Z,96758.50
2023-07-24T17:05:41.810Z,96770.38
2023-07-24T17:08:08.460Z,96759.34
2023-07-24T17:10:46.546Z,96761.75
2023-07-24T17:13:13.901Z,96774.09
2023-07-24T17:15:40.790Z,96752.75
2023-07-24T17:18:08.786Z,96764.28
2023-07-24T17:20:35.849Z,96755.22
2023-07-24T17:23:02.745Z,96755.25
2023-07-24T17:25:29.479Z,96760.44
2023-07-24T17:27:56.304Z,96732.72
2023-07-24T17:30:22.947Z,96720.03
2023-07-24T17:32:49.682Z,96748.56
2023-07-24T17:35:16.350Z,96738.28
2023-07-24T17:37:42.966Z,96743.06
2023-07-24T17:40:10.639Z,96745.81
2023-07-24T17:42:37.991Z,96747.81
2023-07-24T17:45:05.084Z,96726.03
2023-07-24T17:47:32.544Z,96743.84
2023-07-24T17:50:07.085Z,96737.88
2023-07-24T17:52:35.862Z,96729.56
2023-07-24T17:55:02.582Z,96740.66
2023-07-24T17:57:29.438Z,96725.59
2023-07-24T17:59:56.294Z,96736.66
2023-07-24T18:02:23.014Z,96726.34
2023-07-24T18:04:49.715Z,96720.41
2023-07-24T18:07:16.378Z,96726.34
2023-07-24T18:09:46.629Z,96712.78
2023-07-24T18:12:13.902Z,96706.44
2023-07-24T18:14:42.361Z,96740.09
2023-07-24T18:17:09.357Z,96715.88
2023-07-24T18:19:36.415Z,96747.09
2023-07-24T18:22:04.550Z,96727.22
2023-07-24T18:24:31.569Z,96709.28
2023-07-24T18:26:58.325Z,96739.81
2023-07-24T18:29:26.685Z,96694.13
2023-07-24T18:31:54.659Z,96737.66
2023-07-24T18:34:37.781Z,96722.44
2023-07-24T18:37:04.943Z,96710.47
2023-07-24T18:39:31.653Z,96728.22
2023-07-24T18:41:59.337Z,96746.78
2023-07-24T18:44:26.025Z,96714.81
2023-07-24T18:46:53.651Z,96755.97
2023-07-24T18:49:21.278Z,96732.94
2023-07-24T18:51:48.069Z,96721.78
2023-07-24T18:54:15.751Z,96751.06
2023-07-24T18:56:42.733Z,96751.72
2023-07-24T18:59:09.754Z,96730.19
2023-07-24T19:01:37.524Z,96745.97
2023-07-24T19:04:04.860Z,96734.69
2023-07-24T19:06:32.289Z,96745.25
2023-07-24T19:08:59.321Z,96710.72
2023-07-24T19:11:26.335Z,96688.81
2023-07-24T19:13:53.123Z,96709.38
2023-07-24T19:16:19.954Z,96737.88
2023-07-24T19:18:48.357Z,96737.34
2023-07-24T19:21:15.075Z,96719.75
2023-07-24T19:23:42.610Z,96726.56
2023-07-24T19:26:11.390Z,96710.84
2023-07-24T19:28:42.303Z,96676.69
2023-07-24T19:31:11.619Z,96720.41
2023-07-24T19:33:42.329Z,96678.22
2023-07-24T19:36:08.978Z,96682.75
2023-07-24T19:38:35.801Z,96717.31
2023-07-24T19:41:02.827Z,96717.63
2023-07-24T19:43:29.745Z,96711.88
2023-07-24T19:45:57.783Z,96712.63
2023-07-24T19:48:28.028Z,96699.47
2023-07-24T19:50:56.240Z,96687.44
2023-07-24T19:53:25.569Z,96706.78
2023-07-24T19:55:56.581Z,96674.59
2023-07-24T19:58:46.671Z,96686.53
2023-07-24T20:04:57.888Z,96739.53
2023-07-24T20:07:28.238Z,96716.78
2023-07-24T20:10:04.937Z,96725.19
2023-07-24T20:12:32.550Z,96682.03
2023-07-24T20:15:03.958Z,96712.63
2023-07-24T20:17:33.388Z,96714.88
2023-07-24T20:20:00.540Z,96692.13
2023-07-24T20:22:35.538Z,96698.63
2023-07-24T20:25:02.287Z,96655.47
2023-07-24T20:27:30.415Z,96728.50
2023-07-24T20:30:08.595Z,96732.91
2023-07-24T20:32:37.797Z,96705.78
2023-07-24T20:35:08.208Z,96669.78
2023-07-24T20:37:35.426Z,96700.91
2023-07-24T20:40:08.183Z,96662.56
2023-07-24T20:42:50.474Z,96676.75
2023-07-24T20:45:20.349Z,96671.25
2023-07-24T20:47:49.017Z,96710.97
2023-07-24T20:50:18.867Z,96704.75
2023-07-24T20:52:45.674Z,96718.84
2023-07-24T20:55:13.278Z,96702.97
2023-07-24T20:57:40.075Z,96700.66
2023-07-24T21:00:10.610Z,96678.00
2023-07-24T21:02:37.622Z,96681.38
2023-07-24T21:05:04.598Z,96707.38
2023-07-24T21:07:31.236Z,96664.91
2023-07-24T21:09:58.543Z,96660.00
2023-07-24T21:12:36.095Z,96717.50
2023-07-24T21:15:06.540Z,96686.38
2023-07-24T21:18:12.003Z,96655.06
2023-07-24T21:20:42.682Z,96634.88
2023-07-24T21:23:09.489Z,96688.13
2023-07-24T21:25:36.219Z,96663.78
2023-07-24T21:28:03.178Z,96670.97
2023-07-24T21:30:30.001Z,96665.66
2023-07-24T21:32:56.776Z,96678.97
2023-07-24T21:35:25.980Z,96658.25
2023-07-24T21:37:55.438Z,96687.91
2023-07-24T21:40:33.584Z,96669.69
2023-07-24T21:43:00.303Z,96646.91
2023-07-24T21:45:27.047Z,96652.47
2023-07-24T21:47:54.520Z,96622.41
2023-07-24T21:50:21.281Z,96652.94
2023-07-24T21:52:48.175Z,96643.38
2023-07-24T21:55:15.784Z,96624.16
2023-07-24T21:57:42.432Z,96617.63
2023-07-24T22:00:09.556Z,96589.94
2023-07-24T22:02:39.491Z,96651.69
2023-07-24T22:05:06.310Z,96602.78
2023-07-24T22:07:33.924Z,96604.28
2023-07-24T22:10:01.643Z,96639.84
2023-07-24T22:12:28.998Z,96631.63
2023-07-24T22:14:55.651Z,96626.94
2023-07-24T22:17:29.286Z,96601.03
2023-07-24T22:19:56.820Z,96606.06
2023-07-24T22:22:24.399Z,96662.88
2023-07-24T22:24:51.344Z,96652.94
2023-07-24T22:27:18.478Z,96653.22
2023-07-24T22:29:45.519Z,96623.75
2023-07-24T22:32:12.440Z,96638.16
2023-07-24T22:34:39.182Z,96638.88
2023-07-24T22:37:07.335Z,96605.69
2023-07-24T22:39:35.619Z,96652.25
2023-07-24T22:42:02.481Z,96634.19
2023-07-24T22:44:29.828Z,96617.25
2023-07-24T22:46:57.378Z,96636.13
2023-07-24T22:49:24.743Z,96663.53
2023-07-24T22:51:52.146Z,96622.94
2023-07-24T22:54:18.840Z,96626.41
2023-07-24T22:56:45.787Z,96607.91
2023-07-24T22:59:26.510Z,96602.34
2023-07-24T23:01:55.388Z,96635.84
2023-07-24T23:04:24.423Z,96624.09
2023-07-24T23:06:52.550Z,96599.28
2023-07-24T23:09:19.392Z,96653.72
2023-07-24T23:11:46.054Z,96643.00
2023-07-24T23:14:12.868Z,96642.81
2023-07-24T23:16:39.582Z,96619.59
2023-07-24T23:19:06.207Z,96603.41
2023-07-24T23:21:34.229Z,96637.34
2023-07-24T23:24:01.086Z,96593.31
2023-07-24T23:26:27.966Z,96593.22
2023-07-24T23:28:57.134Z,96636.59
2023-07-24T23:31:23.857Z,96608.50
2023-07-24T23:33:50.555Z,96623.75
2023-07-24T23:36:17.279Z,96601.69
2023-07-24T23:38:43.916Z,96573.81
2023-07-24T23:41:10.589Z,96592.13
2023-07-24T23:43:42.516Z,96639.72
2023-07-24T23:46:11.941Z,96606.81
2023-07-24T23:48:40.062Z,96614.69
2023-07-24T23:51:17.257Z,96598.91
2023-07-24T23:53:44.640Z,96642.56
2023-07-24T23:56:11.724Z,96637.44
2023-07-24T23:58:42.147Z,96618.09
